sensor_id;sensor_type;location;lat;lon;timestamp;pressure;altitude;pressure_sealevel;temperature;humidity
24666;BME280;29726;53.532;-1.478;2023-02-16T00:02:14;100801.63;;;13.61;100.00
24666;BME280;29726;53.532;-1.478;2023-02-16T00:04:58;100809.56;;;13.62;100.00
24666;BME280;29726;53.532;-1.478;2023-02-16T00:07:42;100791.75;;;13.51;100.00
24666;BME280;29726;53.532;-1.478;2023-02-16T00:10:31;100812.69;;;13.64;100.00
24666;BME280;29726;53.532;-1.478;2023-02-16T00:13:26;100803.38;;;13.58;100.00
24666;BME280;29726;53.532;-1.478;2023-02-16T00:16:30;100816.44;;;13.61;100.00
24666;BME280;29726;53.532;-1.478;2023-02-16T00:19:17;100766.06;;;13.29;100.00
24666;BME280;29726;53.532;-1.478;2023-02-16T00:22:02;100812.38;;;13.62;100.00
24666;BME280;29726;53.532;-1.478;2023-02-16T00:24:47;100793.78;;;13.50;100.00
24666;BME280;29726;53.532;-1.478;2023-02-16T00:27:31;100761.44;;;13.26;100.00
24666;BME280;29726;53.532;-1.478;2023-02-16T00:30:20;100790.97;;;13.50;100.00
24666;BME280;29726;53.532;-1.478;2023-02-16T00:33:18;100766.97;;;13.35;100.00
24666;BME280;29726;53.532;-1.478;2023-02-16T00:36:03;100778.41;;;13.46;100.00
24666;BME280;29726;53.532;-1.478;2023-02-16T00:38:47;100799.50;;;13.56;100.00
24666;BME280;29726;53.532;-1.478;2023-02-16T00:41:31;100795.81;;;13.50;100.00
24666;BME280;29726;53.532;-1.478;2023-02-16T00:44:40;100784.69;;;13.55;100.00
24666;BME280;29726;53.532;-1.478;2023-02-16T00:47:35;100754.41;;;13.45;100.00
24666;BME280;29726;53.532;-1.478;2023-02-16T00:50:29;100757.03;;;13.48;100.00
24666;BME280;29726;53.532;-1.478;2023-02-16T00:53:13;100759.94;;;13.54;100.00
24666;BME280;29726;53.532;-1.478;2023-02-16T00:55:57;100763.72;;;13.51;100.00
24666;BME280;29726;53.532;-1.478;2023-02-16T00:58:41;100748.31;;;13.46;100.00
24666;BME280;29726;53.532;-1.478;2023-02-16T01:01:29;100765.53;;;13.54;100.00
24666;BME280;29726;53.532;-1.478;2023-02-16T01:04:20;100768.81;;;13.52;100.00
24666;BME280;29726;53.532;-1.478;2023-02-16T01:07:10;100754.41;;;13.45;100.00
24666;BME280;29726;53.532;-1.478;2023-02-16T01:10:17;100764.69;;;13.48;100.00
24666;BME280;29726;53.532;-1.478;2023-02-16T01:13:20;100762.91;;;13.50;100.00
24666;BME280;29726;53.532;-1.478;2023-02-16T01:16:11;100755.84;;;13.40;100.00
24666;BME280;29726;53.532;-1.478;2023-02-16T01:18:55;100755.34;;;13.42;100.00
24666;BME280;29726;53.532;-1.478;2023-02-16T01:21:39;100755.34;;;13.42;100.00
24666;BME280;29726;53.532;-1.478;2023-02-16T01:24:23;100756.44;;;13.44;100.00
24666;BME280;29726;53.532;-1.478;2023-02-16T01:27:11;100733.47;;;13.31;100.00
24666;BME280;29726;53.532;-1.478;2023-02-16T01:29:56;100758.94;;;13.42;100.00
24666;BME280;29726;53.532;-1.478;2023-02-16T01:32:40;100752.09;;;13.43;100.00
24666;BME280;29726;53.532;-1.478;2023-02-16T01:35:29;100741.25;;;13.36;100.00
24666;BME280;29726;53.532;-1.478;2023-02-16T01:38:20;100750.03;;;13.44;100.00
24666;BME280;29726;53.532;-1.478;2023-02-16T01:47:18;100720.84;;;13.36;100.00
24666;BME280;29726;53.532;-1.478;2023-02-16T01:50:40;100727.03;;;13.40;100.00
24666;BME280;29726;53.532;-1.478;2023-02-16T01:53:30;100715.81;;;13.40;100.00
24666;BME280;29726;53.532;-1.478;2023-02-16T01:56:32;100718.31;;;13.38;100.00
24666;BME280;29726;53.532;-1.478;2023-02-16T02:02:26;100693.66;;;13.27;100.00
24666;BME280;29726;53.532;-1.478;2023-02-16T02:05:22;100704.00;;;13.36;100.00
24666;BME280;29726;53.532;-1.478;2023-02-16T02:08:40;100708.06;;;13.35;100.00
24666;BME280;29726;53.532;-1.478;2023-02-16T02:11:32;100688.34;;;13.29;100.00
24666;BME280;29726;53.532;-1.478;2023-02-16T02:14:22;100679.34;;;13.26;100.00
24666;BME280;29726;53.532;-1.478;2023-02-16T02:17:15;100684.09;;;13.34;100.00
24666;BME280;29726;53.532;-1.478;2023-02-16T02:20:09;100688.63;;;13.31;100.00
24666;BME280;29726;53.532;-1.478;2023-02-16T02:32:39;100676.34;;;13.29;100.00
24666;BME280;29726;53.532;-1.478;2023-02-16T02:35:53;100675.56;;;13.28;100.00
24666;BME280;29726;53.532;-1.478;2023-02-16T02:39:05;100670.47;;;13.27;100.00
24666;BME280;29726;53.532;-1.478;2023-02-16T02:42:03;100657.59;;;13.21;100.00
24666;BME280;29726;53.532;-1.478;2023-02-16T02:44:55;100643.97;;;13.14;100.00
24666;BME280;29726;53.532;-1.478;2023-02-16T02:47:46;100650.44;;;13.20;100.00
24666;BME280;29726;53.532;-1.478;2023-02-16T02:50:42;100647.75;;;13.25;100.00
24666;BME280;29726;53.532;-1.478;2023-02-16T02:54:06;100659.72;;;13.26;100.00
24666;BME280;29726;53.532;-1.478;2023-02-16T02:57:30;100643.06;;;13.22;100.00
24666;BME280;29726;53.532;-1.478;2023-02-16T03:00:37;100586.09;;;12.87;100.00
24666;BME280;29726;53.532;-1.478;2023-02-16T03:03:37;100623.84;;;13.15;100.00
24666;BME280;29726;53.532;-1.478;2023-02-16T03:06:33;100624.63;;;13.16;100.00
24666;BME280;29726;53.532;-1.478;2023-02-16T03:09:19;100624.13;;;13.17;100.00
24666;BME280;29726;53.532;-1.478;2023-02-16T03:12:05;100624.72;;;13.21;100.00
24666;BME280;29726;53.532;-1.478;2023-02-16T03:15:10;100610.13;;;13.17;100.00
24666;BME280;29726;53.532;-1.478;2023-02-16T03:17:56;100609.16;;;13.20;100.00
24666;BME280;29726;53.532;-1.478;2023-02-16T03:21:01;100599.69;;;13.18;100.00
24666;BME280;29726;53.532;-1.478;2023-02-16T03:24:08;100611.19;;;13.20;100.00
24666;BME280;29726;53.532;-1.478;2023-02-16T03:27:17;100595.06;;;13.15;100.00
24666;BME280;29726;53.532;-1.478;2023-02-16T03:30:23;100559.84;;;12.99;100.00
24666;BME280;29726;53.532;-1.478;2023-02-16T03:33:08;100579.00;;;13.15;100.00
24666;BME280;29726;53.532;-1.478;2023-02-16T03:35:53;100573.66;;;13.17;100.00
24666;BME280;29726;53.532;-1.478;2023-02-16T03:38:38;100553.97;;;13.12;100.00
24666;BME280;29726;53.532;-1.478;2023-02-16T03:41:23;100562.47;;;13.17;100.00
24666;BME280;29726;53.532;-1.478;2023-02-16T03:44:08;100559.75;;;13.08;100.00
24666;BME280;29726;53.532;-1.478;2023-02-16T03:46:52;100559.75;;;13.08;100.00
24666;BME280;29726;53.532;-1.478;2023-02-16T03:49:36;100564.69;;;13.13;100.00
24666;BME280;29726;53.532;-1.478;2023-02-16T03:52:20;100551.34;;;13.08;100.00
24666;BME280;29726;53.532;-1.478;2023-02-16T03:55:04;100551.06;;;13.06;100.00
24666;BME280;29726;53.532;-1.478;2023-02-16T03:57:49;100555.72;;;13.09;100.00
24666;BME280;29726;53.532;-1.478;2023-02-16T04:00:34;100559.88;;;13.14;100.00
24666;BME280;29726;53.532;-1.478;2023-02-16T04:03:19;100559.25;;;13.10;100.00
24666;BME280;29726;53.532;-1.478;2023-02-16T04:06:03;100552.72;;;13.13;100.00
24666;BME280;29726;53.532;-1.478;2023-02-16T04:08:47;100492.97;;;12.78;100.00
24666;BME280;29726;53.532;-1.478;2023-02-16T04:11:31;100531.16;;;13.04;100.00
24666;BME280;29726;53.532;-1.478;2023-02-16T04:14:34;100529.34;;;13.01;100.00
24666;BME280;29726;53.532;-1.478;2023-02-16T04:17:18;100524.09;;;13.09;100.00
24666;BME280;29726;53.532;-1.478;2023-02-16T04:20:03;100534.03;;;13.10;100.00
24666;BME280;29726;53.532;-1.478;2023-02-16T04:22:49;100527.19;;;13.11;100.00
24666;BME280;29726;53.532;-1.478;2023-02-16T04:25:33;100507.38;;;13.00;100.00
24666;BME280;29726;53.532;-1.478;2023-02-16T04:28:17;100509.41;;;12.99;100.00
24666;BME280;29726;53.532;-1.478;2023-02-16T04:31:01;100505.16;;;13.04;100.00
24666;BME280;29726;53.532;-1.478;2023-02-16T04:33:45;100412.44;;;12.44;100.00
24666;BME280;29726;53.532;-1.478;2023-02-16T04:36:28;100500.34;;;13.04;100.00
24666;BME280;29726;53.532;-1.478;2023-02-16T04:39:14;100508.47;;;13.02;100.00
24666;BME280;29726;53.532;-1.478;2023-02-16T04:41:58;100513.84;;;13.06;100.00
24666;BME280;29726;53.532;-1.478;2023-02-16T04:44:42;100472.19;;;12.84;100.00
24666;BME280;29726;53.532;-1.478;2023-02-16T04:47:26;100496.06;;;12.94;100.00
24666;BME280;29726;53.532;-1.478;2023-02-16T04:50:11;100486.13;;;12.93;100.00
24666;BME280;29726;53.532;-1.478;2023-02-16T04:52:56;100478.84;;;12.87;100.00
24666;BME280;29726;53.532;-1.478;2023-02-16T04:55:45;100487.19;;;12.96;100.00
24666;BME280;29726;53.532;-1.478;2023-02-16T04:58:29;100483.31;;;12.93;100.00
24666;BME280;29726;53.532;-1.478;2023-02-16T05:01:23;100481.19;;;13.03;100.00
24666;BME280;29726;53.532;-1.478;2023-02-16T05:04:08;100463.91;;;12.90;100.00
24666;BME280;29726;53.532;-1.478;2023-02-16T05:06:55;100446.97;;;12.84;100.00
24666;BME280;29726;53.532;-1.478;2023-02-16T05:09:39;100456.94;;;12.85;100.00
24666;BME280;29726;53.532;-1.478;2023-02-16T05:12:23;100452.50;;;12.93;100.00
24666;BME280;29726;53.532;-1.478;2023-02-16T05:15:26;100456.66;;;12.98;100.00
24666;BME280;29726;53.532;-1.478;2023-02-16T05:18:10;100457.63;;;12.95;100.00
24666;BME280;29726;53.532;-1.478;2023-02-16T05:20:54;100443.34;;;12.93;100.00
24666;BME280;29726;53.532;-1.478;2023-02-16T05:24:07;100444.88;;;12.94;100.00
24666;BME280;29726;53.532;-1.478;2023-02-16T05:26:51;100440.97;;;12.91;100.00
24666;BME280;29726;53.532;-1.478;2023-02-16T05:29:35;100431.03;;;12.90;100.00
24666;BME280;29726;53.532;-1.478;2023-02-16T05:32:19;100425.34;;;12.85;100.00
24666;BME280;29726;53.532;-1.478;2023-02-16T05:35:04;100432.13;;;12.93;100.00
24666;BME280;29726;53.532;-1.478;2023-02-16T05:37:48;100404.28;;;12.75;100.00
24666;BME280;29726;53.532;-1.478;2023-02-16T05:40:32;100428.53;;;12.92;100.00
24666;BME280;29726;53.532;-1.478;2023-02-16T05:43:16;100400.22;;;12.76;100.00
24666;BME280;29726;53.532;-1.478;2023-02-16T05:46:06;100423.41;;;12.91;100.00
24666;BME280;29726;53.532;-1.478;2023-02-16T05:48:51;100433.84;;;12.90;100.00
24666;BME280;29726;53.532;-1.478;2023-02-16T05:51:35;100407.94;;;12.81;100.00
24666;BME280;29726;53.532;-1.478;2023-02-16T05:54:20;100413.94;;;12.88;100.00
24666;BME280;29726;53.532;-1.478;2023-02-16T05:57:03;100404.88;;;12.79;100.00
24666;BME280;29726;53.532;-1.478;2023-02-16T05:59:47;100412.00;;;12.80;100.00
24666;BME280;29726;53.532;-1.478;2023-02-16T06:02:31;100411.81;;;12.83;100.00
24666;BME280;29726;53.532;-1.478;2023-02-16T06:05:15;100404.47;;;12.71;100.00
24666;BME280;29726;53.532;-1.478;2023-02-16T06:07:59;100425.34;;;12.85;100.00
24666;BME280;29726;53.532;-1.478;2023-02-16T06:10:43;100424.97;;;12.77;100.00
24666;BME280;29726;53.532;-1.478;2023-02-16T06:13:27;100417.81;;;12.76;100.00
24666;BME280;29726;53.532;-1.478;2023-02-16T06:16:12;100403.16;;;12.67;100.00
24666;BME280;29726;53.532;-1.478;2023-02-16T06:18:57;100433.72;;;12.85;100.00
24666;BME280;29726;53.532;-1.478;2023-02-16T06:21:41;100409.13;;;12.74;100.00
24666;BME280;29726;53.532;-1.478;2023-02-16T06:24:26;100405.75;;;12.70;100.00
24666;BME280;29726;53.532;-1.478;2023-02-16T06:27:10;100409.44;;;12.76;100.00
24666;BME280;29726;53.532;-1.478;2023-02-16T06:29:54;100406.63;;;12.76;100.00
24666;BME280;29726;53.532;-1.478;2023-02-16T06:32:38;100395.50;;;12.82;100.00
24666;BME280;29726;53.532;-1.478;2023-02-16T06:35:22;100403.88;;;12.82;100.00
24666;BME280;29726;53.532;-1.478;2023-02-16T06:38:06;100392.41;;;12.80;100.00
24666;BME280;29726;53.532;-1.478;2023-02-16T06:40:51;100346.78;;;12.45;100.00
24666;BME280;29726;53.532;-1.478;2023-02-16T06:43:36;100406.41;;;12.80;100.00
24666;BME280;29726;53.532;-1.478;2023-02-16T06:46:20;100402.06;;;12.79;100.00
24666;BME280;29726;53.532;-1.478;2023-02-16T06:49:04;100391.75;;;12.70;100.00
24666;BME280;29726;53.532;-1.478;2023-02-16T06:51:48;100379.22;;;12.66;100.00
24666;BME280;29726;53.532;-1.478;2023-02-16T06:54:32;100399.44;;;12.75;100.00
24666;BME280;29726;53.532;-1.478;2023-02-16T06:57:16;100395.91;;;12.75;100.00
24666;BME280;29726;53.532;-1.478;2023-02-16T07:00:00;100399.44;;;12.75;100.00
24666;BME280;29726;53.532;-1.478;2023-02-16T07:02:45;100397.16;;;12.74;100.00
24666;BME280;29726;53.532;-1.478;2023-02-16T07:05:29;100389.50;;;12.74;100.00
24666;BME280;29726;53.532;-1.478;2023-02-16T07:08:13;100390.00;;;12.73;100.00
24666;BME280;29726;53.532;-1.478;2023-02-16T07:10:57;100370.69;;;12.75;100.00
24666;BME280;29726;53.532;-1.478;2023-02-16T07:13:42;100367.03;;;12.69;100.00
24666;BME280;29726;53.532;-1.478;2023-02-16T07:16:26;100356.31;;;12.67;100.00
24666;BME280;29726;53.532;-1.478;2023-02-16T07:19:10;100369.13;;;12.74;100.00
24666;BME280;29726;53.532;-1.478;2023-02-16T07:21:54;100369.13;;;12.74;100.00
24666;BME280;29726;53.532;-1.478;2023-02-16T07:24:38;100364.13;;;12.63;100.00
24666;BME280;29726;53.532;-1.478;2023-02-16T07:27:22;100372.22;;;12.76;100.00
24666;BME280;29726;53.532;-1.478;2023-02-16T07:30:07;100368.56;;;12.70;100.00
24666;BME280;29726;53.532;-1.478;2023-02-16T07:32:52;100363.72;;;12.70;100.00
24666;BME280;29726;53.532;-1.478;2023-02-16T07:35:36;100370.41;;;12.73;100.00
24666;BME280;29726;53.532;-1.478;2023-02-16T07:38:20;100351.19;;;12.66;100.00
24666;BME280;29726;53.532;-1.478;2023-02-16T07:41:04;100366.81;;;12.72;100.00
24666;BME280;29726;53.532;-1.478;2023-02-16T07:43:48;100362.59;;;12.62;100.00
24666;BME280;29726;53.532;-1.478;2023-02-16T07:46:32;100363.66;;;12.65;100.00
24666;BME280;29726;53.532;-1.478;2023-02-16T07:49:16;100376.75;;;12.73;100.00
24666;BME280;29726;53.532;-1.478;2023-02-16T07:52:00;100384.59;;;12.69;100.00
24666;BME280;29726;53.532;-1.478;2023-02-16T07:54:44;100379.56;;;12.73;100.00
24666;BME280;29726;53.532;-1.478;2023-02-16T07:57:29;100352.53;;;12.56;100.00
24666;BME280;29726;53.532;-1.478;2023-02-16T08:00:13;100326.50;;;12.35;100.00
24666;BME280;29726;53.532;-1.478;2023-02-16T08:02:57;100349.84;;;12.61;100.00
24666;BME280;29726;53.532;-1.478;2023-02-16T08:05:41;100352.94;;;12.63;100.00
24666;BME280;29726;53.532;-1.478;2023-02-16T08:08:25;100355.53;;;12.67;100.00
24666;BME280;29726;53.532;-1.478;2023-02-16T08:11:10;100368.63;;;12.75;100.00
24666;BME280;29726;53.532;-1.478;2023-02-16T08:13:55;100368.16;;;12.77;100.00
24666;BME280;29726;53.532;-1.478;2023-02-16T08:16:41;100372.69;;;12.74;100.00
24666;BME280;29726;53.532;-1.478;2023-02-16T08:19:25;100351.53;;;12.73;100.00
24666;BME280;29726;53.532;-1.478;2023-02-16T08:22:10;100369.25;;;12.79;100.00
24666;BME280;29726;53.532;-1.478;2023-02-16T08:24:54;100338.03;;;12.72;100.00
24666;BME280;29726;53.532;-1.478;2023-02-16T08:27:38;100334.28;;;12.75;100.00
24666;BME280;29726;53.532;-1.478;2023-02-16T08:30:22;100356.50;;;12.78;100.00
24666;BME280;29726;53.532;-1.478;2023-02-16T08:33:07;100342.69;;;12.75;100.00
24666;BME280;29726;53.532;-1.478;2023-02-16T08:35:51;100350.47;;;12.85;100.00
24666;BME280;29726;53.532;-1.478;2023-02-16T08:38:36;100351.63;;;12.79;100.00
24666;BME280;29726;53.532;-1.478;2023-02-16T08:41:22;100344.19;;;12.90;100.00
24666;BME280;29726;53.532;-1.478;2023-02-16T08:44:09;100340.31;;;12.88;100.00
24666;BME280;29726;53.532;-1.478;2023-02-16T08:46:55;100344.00;;;12.94;100.00
24666;BME280;29726;53.532;-1.478;2023-02-16T08:49:41;100343.03;;;12.97;100.00
24666;BME280;29726;53.532;-1.478;2023-02-16T08:52:27;100333.84;;;12.96;100.00
24666;BME280;29726;53.532;-1.478;2023-02-16T08:55:11;100321.59;;;12.94;100.00
24666;BME280;29726;53.532;-1.478;2023-02-16T08:57:56;100304.28;;;12.95;100.00
24666;BME280;29726;53.532;-1.478;2023-02-16T09:00:42;100320.00;;;13.07;100.00
24666;BME280;29726;53.532;-1.478;2023-02-16T09:03:26;100275.03;;;12.82;100.00
24666;BME280;29726;53.532;-1.478;2023-02-16T09:06:12;100312.63;;;13.10;100.00
24666;BME280;29726;53.532;-1.478;2023-02-16T09:08:56;100305.44;;;13.03;100.00
24666;BME280;29726;53.532;-1.478;2023-02-16T09:11:40;100317.06;;;13.16;100.00
24666;BME280;29726;53.532;-1.478;2023-02-16T09:14:24;100328.78;;;13.15;100.00
24666;BME280;29726;53.532;-1.478;2023-02-16T09:17:09;100322.09;;;13.12;100.00
24666;BME280;29726;53.532;-1.478;2023-02-16T09:19:53;100327.28;;;13.19;100.00
24666;BME280;29726;53.532;-1.478;2023-02-16T09:22:37;100313.56;;;13.21;100.00
24666;BME280;29726;53.532;-1.478;2023-02-16T09:25:21;100308.53;;;13.25;100.00
24666;BME280;29726;53.532;-1.478;2023-02-16T09:28:09;100310.28;;;13.23;100.00
24666;BME280;29726;53.532;-1.478;2023-02-16T09:30:53;100307.03;;;13.29;100.00
24666;BME280;29726;53.532;-1.478;2023-02-16T09:33:39;100283.97;;;13.20;100.00
24666;BME280;29726;53.532;-1.478;2023-02-16T09:36:24;100305.22;;;13.27;100.00
24666;BME280;29726;53.532;-1.478;2023-02-16T09:39:10;100308.47;;;13.39;100.00
24666;BME280;29726;53.532;-1.478;2023-02-16T09:45:26;100330.25;;;13.50;100.00
24666;BME280;29726;53.532;-1.478;2023-02-16T09:48:35;100320.34;;;13.54;100.00
24666;BME280;29726;53.532;-1.478;2023-02-16T09:51:33;100293.66;;;13.39;100.00
24666;BME280;29726;53.532;-1.478;2023-02-16T10:09:33;100309.13;;;13.54;100.00
24666;BME280;29726;53.532;-1.478;2023-02-16T10:12:22;100366.00;;;14.00;100.00
24666;BME280;29726;53.532;-1.478;2023-02-16T10:15:11;100379.91;;;14.09;100.00
24666;BME280;29726;53.532;-1.478;2023-02-16T10:18:04;100380.19;;;14.11;100.00
24666;BME280;29726;53.532;-1.478;2023-02-16T10:20:53;100372.94;;;14.25;100.00
24666;BME280;29726;53.532;-1.478;2023-02-16T10:23:52;100368.22;;;14.36;100.00
24666;BME280;29726;53.532;-1.478;2023-02-16T10:26:50;100370.63;;;14.49;100.00
24666;BME280;29726;53.532;-1.478;2023-02-16T10:29:38;100351.28;;;14.56;100.00
24666;BME280;29726;53.532;-1.478;2023-02-16T10:32:26;100371.28;;;14.69;100.00
24666;BME280;29726;53.532;-1.478;2023-02-16T10:35:15;100359.38;;;14.80;100.00
24666;BME280;29726;53.532;-1.478;2023-02-16T10:38:30;100353.84;;;14.91;100.00
24666;BME280;29726;53.532;-1.478;2023-02-16T10:44:34;100341.94;;;15.12;100.00
24666;BME280;29726;53.532;-1.478;2023-02-16T10:47:37;100315.91;;;15.11;100.00
24666;BME280;29726;53.532;-1.478;2023-02-16T10:50:30;100353.38;;;15.39;100.00
24666;BME280;29726;53.532;-1.478;2023-02-16T10:53:23;100345.50;;;15.49;100.00
24666;BME280;29726;53.532;-1.478;2023-02-16T10:59:23;100333.28;;;15.63;100.00
24666;BME280;29726;53.532;-1.478;2023-02-16T11:02:25;100338.44;;;15.81;100.00
24666;BME280;29726;53.532;-1.478;2023-02-16T11:08:09;100316.47;;;15.90;100.00
24666;BME280;29726;53.532;-1.478;2023-02-16T11:10:57;100325.47;;;16.00;100.00
24666;BME280;29726;53.532;-1.478;2023-02-16T11:13:57;100330.84;;;16.09;100.00
24666;BME280;29726;53.532;-1.478;2023-02-16T11:16:43;100324.19;;;16.12;100.00
24666;BME280;29726;53.532;-1.478;2023-02-16T11:19:27;100316.25;;;16.21;100.00
24666;BME280;29726;53.532;-1.478;2023-02-16T11:22:33;100320.38;;;16.26;100.00
24666;BME280;29726;53.532;-1.478;2023-02-16T11:25:21;100315.75;;;16.23;100.00
24666;BME280;29726;53.532;-1.478;2023-02-16T11:28:06;100320.13;;;16.24;100.00
24666;BME280;29726;53.532;-1.478;2023-02-16T11:30:59;100336.81;;;16.38;100.00
24666;BME280;29726;53.532;-1.478;2023-02-16T11:37:39;100309.13;;;16.31;100.00
24666;BME280;29726;53.532;-1.478;2023-02-16T11:40:27;100322.44;;;16.47;100.00
24666;BME280;29726;53.532;-1.478;2023-02-16T11:43:16;100348.34;;;16.51;100.00
24666;BME280;29726;53.532;-1.478;2023-02-16T11:46:11;100339.34;;;16.47;100.00
24666;BME280;29726;53.532;-1.478;2023-02-16T11:50:06;100351.16;;;16.46;100.00
24666;BME280;29726;53.532;-1.478;2023-02-16T11:52:28;100356.28;;;16.58;100.00
24666;BME280;29726;53.532;-1.478;2023-02-16T11:55:30;100337.56;;;16.50;100.00
24666;BME280;29726;53.532;-1.478;2023-02-16T11:58:25;100362.69;;;16.59;100.00
24666;BME280;29726;53.532;-1.478;2023-02-16T12:11:17;100326.53;;;16.73;100.00
24666;BME280;29726;53.532;-1.478;2023-02-16T12:24:11;100344.47;;;16.98;100.00
24666;BME280;29726;53.532;-1.478;2023-02-16T12:27:18;100323.69;;;16.95;100.00
24666;BME280;29726;53.532;-1.478;2023-02-16T12:39:44;100334.44;;;17.19;100.00
24666;BME280;29726;53.532;-1.478;2023-02-16T12:45:38;100324.44;;;17.18;100.00
24666;BME280;29726;53.532;-1.478;2023-02-16T12:48:50;100339.28;;;17.29;100.00
24666;BME280;29726;53.532;-1.478;2023-02-16T12:51:41;100316.19;;;17.25;100.00
24666;BME280;29726;53.532;-1.478;2023-02-16T12:54:39;100335.41;;;17.38;100.00
24666;BME280;29726;53.532;-1.478;2023-02-16T12:57:27;100306.16;;;17.30;100.00
24666;BME280;29726;53.532;-1.478;2023-02-16T13:00:31;100325.38;;;17.42;100.00
24666;BME280;29726;53.532;-1.478;2023-02-16T13:12:43;100317.88;;;17.61;100.00
24666;BME280;29726;53.532;-1.478;2023-02-16T13:15:47;100310.94;;;17.62;100.00
24666;BME280;29726;53.532;-1.478;2023-02-16T13:18:38;100309.16;;;17.59;100.00
24666;BME280;29726;53.532;-1.478;2023-02-16T13:21:35;100340.63;;;17.74;100.00
24666;BME280;29726;53.532;-1.478;2023-02-16T13:24:49;100330.91;;;17.75;100.00
24666;BME280;29726;53.532;-1.478;2023-02-16T13:33:40;100339.31;;;17.86;100.00
24666;BME280;29726;53.532;-1.478;2023-02-16T13:36:39;100351.63;;;17.89;100.00
24666;BME280;29726;53.532;-1.478;2023-02-16T13:45:38;100356.50;;;17.88;100.00
24666;BME280;29726;53.532;-1.478;2023-02-16T13:48:36;100347.53;;;17.84;100.00
24666;BME280;29726;53.532;-1.478;2023-02-16T13:51:23;100361.59;;;17.95;100.00
24666;BME280;29726;53.532;-1.478;2023-02-16T13:54:22;100344.94;;;17.92;100.00
24666;BME280;29726;53.532;-1.478;2023-02-16T13:57:13;100341.31;;;17.97;100.00
24666;BME280;29726;53.532;-1.478;2023-02-16T14:00:00;100314.91;;;17.89;100.00
24666;BME280;29726;53.532;-1.478;2023-02-16T14:05:51;100350.81;;;17.99;100.00
24666;BME280;29726;53.532;-1.478;2023-02-16T14:08:36;100353.91;;;17.96;100.00
24666;BME280;29726;53.532;-1.478;2023-02-16T14:11:20;100355.19;;;17.95;100.00
24666;BME280;29726;53.532;-1.478;2023-02-16T14:14:33;100354.66;;;17.96;100.00
24666;BME280;29726;53.532;-1.478;2023-02-16T14:17:25;100358.22;;;18.02;100.00
24666;BME280;29726;53.532;-1.478;2023-02-16T14:23:02;100310.13;;;17.67;100.00
24666;BME280;29726;53.532;-1.478;2023-02-16T14:25:47;100375.19;;;18.02;100.00
24666;BME280;29726;53.532;-1.478;2023-02-16T14:31:22;100377.22;;;18.02;100.00
24666;BME280;29726;53.532;-1.478;2023-02-16T14:37:25;100345.94;;;17.94;100.00
24666;BME280;29726;53.532;-1.478;2023-02-16T14:40:14;100340.50;;;18.02;100.00
24666;BME280;29726;53.532;-1.478;2023-02-16T14:43:03;100340.50;;;18.02;100.00
24666;BME280;29726;53.532;-1.478;2023-02-16T14:55:59;100303.84;;;17.91;100.00
24666;BME280;29726;53.532;-1.478;2023-02-16T14:58:58;100290.78;;;17.88;100.00
24666;BME280;29726;53.532;-1.478;2023-02-16T15:01:44;100298.22;;;17.91;100.00
24666;BME280;29726;53.532;-1.478;2023-02-16T15:04:31;100321.00;;;17.98;100.00
24666;BME280;29726;53.532;-1.478;2023-02-16T15:07:16;100312.28;;;17.96;100.00
24666;BME280;29726;53.532;-1.478;2023-02-16T15:10:02;100302.03;;;17.93;100.00
24666;BME280;29726;53.532;-1.478;2023-02-16T15:12:47;100289.44;;;17.94;100.00
24666;BME280;29726;53.532;-1.478;2023-02-16T15:15:42;100298.16;;;17.96;100.00
24666;BME280;29726;53.532;-1.478;2023-02-16T15:18:52;100298.16;;;17.96;100.00
24666;BME280;29726;53.532;-1.478;2023-02-16T15:21:35;100298.44;;;17.93;100.00
24666;BME280;29726;53.532;-1.478;2023-02-16T15:24:22;100295.31;;;17.96;100.00
24666;BME280;29726;53.532;-1.478;2023-02-16T15:27:21;100281.50;;;17.93;100.00
24666;BME280;29726;53.532;-1.478;2023-02-16T15:30:21;100290.97;;;17.95;100.00
24666;BME280;29726;53.532;-1.478;2023-02-16T15:33:31;100286.84;;;17.96;100.00
24666;BME280;29726;53.532;-1.478;2023-02-16T15:36:18;100289.44;;;17.94;100.00
24666;BME280;29726;53.532;-1.478;2023-02-16T15:39:13;100296.34;;;17.99;100.00
24666;BME280;29726;53.532;-1.478;2023-02-16T15:42:23;100309.69;;;17.98;100.00
24666;BME280;29726;53.532;-1.478;2023-02-16T15:45:47;100293.53;;;17.99;100.00
24666;BME280;29726;53.532;-1.478;2023-02-16T15:48:37;100237.28;;;17.60;100.00
24666;BME280;29726;53.532;-1.478;2023-02-16T15:54:27;100312.25;;;18.02;100.00
24666;BME280;29726;53.532;-1.478;2023-02-16T15:57:33;100313.03;;;18.02;100.00
24666;BME280;29726;53.532;-1.478;2023-02-16T16:00:20;100287.66;;;17.91;100.00
24666;BME280;29726;53.532;-1.478;2023-02-16T16:03:08;100315.84;;;18.02;100.00
24666;BME280;29726;53.532;-1.478;2023-02-16T16:05:59;100309.16;;;18.05;100.00
24666;BME280;29726;53.532;-1.478;2023-02-16T16:08:44;100310.44;;;18.04;100.00
24666;BME280;29726;53.532;-1.478;2023-02-16T16:11:29;100316.63;;;18.03;100.00
24666;BME280;29726;53.532;-1.478;2023-02-16T16:14:13;100315.84;;;18.02;100.00
24666;BME280;29726;53.532;-1.478;2023-02-16T16:16:58;100306.88;;;17.98;100.00
24666;BME280;29726;53.532;-1.478;2023-02-16T16:19:42;100287.09;;;17.98;100.00
24666;BME280;29726;53.532;-1.478;2023-02-16T16:22:38;100252.88;;;17.72;100.00
24666;BME280;29726;53.532;-1.478;2023-02-16T16:25:42;100305.03;;;18.06;100.00
24666;BME280;29726;53.532;-1.478;2023-02-16T16:28:31;100305.03;;;18.06;100.00
24666;BME280;29726;53.532;-1.478;2023-02-16T16:31:30;100297.06;;;18.05;100.00
24666;BME280;29726;53.532;-1.478;2023-02-16T16:34:37;100293.00;;;18.00;100.00
24666;BME280;29726;53.532;-1.478;2023-02-16T16:37:28;100267.66;;;17.89;100.00